Time;durP1;ratioP1;P1;durP2;ratioP2;P2;SDS_P1;SDS_P2;PMS_P1;PMS_P2;Temp;Humidity;BMP_temperature;BMP_pressure;BME280_temperature;BME280_humidity;BME280_pressure;Samples;Min_cycle;Max_cycle;Signal;HPM_P1;HPM_P2
2023/03/31 00:01:33;;;;;;;5.75;1.98;;;13.50;99.90;;;;;;6278199;28;20124;-79
2023/03/31 00:04:35;;;;;;;5.85;2.97;;;13.50;99.90;;;;;;6278671;28;20056;-80
2023/03/31 00:07:38;;;;;;;3.15;1.73;;;13.50;99.90;;;;;;6285160;28;20048;-80
2023/03/31 00:10:45;;;;;;;4.28;1.23;;;13.50;99.90;;;;;;6286467;28;20424;-80
2023/03/31 00:13:47;;;;;;;4.70;1.25;;;13.50;99.90;;;;;;6284532;28;20411;-80
2023/03/31 00:16:49;;;;;;;3.20;1.83;;;13.50;99.90;;;;;;6281321;28;20052;-79
2023/03/31 00:19:51;;;;;;;2.90;1.38;;;13.40;99.90;;;;;;6275843;28;20746;-79
2023/03/31 00:22:56;;;;;;;2.20;1.40;;;13.40;99.90;;;;;;6277514;28;20049;-79
2023/03/31 00:25:58;;;;;;;6.88;2.38;;;13.40;99.90;;;;;;6276520;28;20098;-79
2023/03/31 00:29:01;;;;;;;3.58;1.65;;;13.40;99.90;;;;;;6277063;28;20491;-79
2023/03/31 00:32:03;;;;;;;5.20;1.83;;;13.40;99.90;;;;;;6277268;28;20045;-79
2023/03/31 00:35:05;;;;;;;3.92;1.88;;;13.40;99.90;;;;;;6276090;28;20045;-79
2023/03/31 00:38:12;;;;;;;6.32;2.08;;;13.50;99.90;;;;;;6278020;28;20049;-80
2023/03/31 00:41:14;;;;;;;3.58;1.10;;;13.50;99.90;;;;;;6279339;28;20103;-80
2023/03/31 00:44:21;;;;;;;5.32;1.98;;;13.50;99.90;;;;;;6278751;28;20037;-79
2023/03/31 00:47:29;;;;;;;6.15;1.45;;;13.60;99.90;;;;;;6279661;28;20088;-80
2023/03/31 00:50:35;;;;;;;3.45;1.67;;;13.50;99.90;;;;;;6279970;28;20052;-79
2023/03/31 00:53:38;;;;;;;5.80;1.70;;;13.50;99.90;;;;;;6275538;28;20041;-79
2023/03/31 00:56:44;;;;;;;3.13;1.60;;;13.50;99.90;;;;;;6276553;28;20049;-79
2023/03/31 00:59:49;;;;;;;3.58;1.30;;;13.40;99.90;;;;;;6298738;28;20051;-79
2023/03/31 01:02:57;;;;;;;2.90;1.35;;;12.90;99.90;;;;;;6277339;28;20119;-79
2023/03/31 01:06:03;;;;;;;3.38;1.33;;;12.50;99.90;;;;;;6271240;28;20052;-78
2023/03/31 01:09:06;;;;;;;2.75;1.63;;;12.30;99.90;;;;;;6271488;28;20090;-79
2023/03/31 01:12:11;;;;;;;4.50;1.10;;;12.20;99.90;;;;;;6271666;28;20115;-79
2023/03/31 01:15:13;;;;;;;2.22;0.90;;;12.10;99.90;;;;;;6271614;28;20048;-78
2023/03/31 01:18:19;;;;;;;5.13;1.48;;;12.00;99.90;;;;;;6270351;28;20067;-80
2023/03/31 01:21:46;;;;;;;1.75;1.25;;;12.00;99.90;;;;;;6271033;28;20044;-79
2023/03/31 01:25:21;;;;;;;2.58;1.42;;;11.90;99.90;;;;;;6270682;28;20518;-79
2023/03/31 01:28:35;;;;;;;4.28;1.02;;;11.90;99.90;;;;;;6270976;28;20063;-79
2023/03/31 01:32:02;;;;;;;3.70;1.02;;;11.90;99.90;;;;;;6270975;28;20041;-78
2023/03/31 01:35:26;;;;;;;6.07;1.55;;;11.80;99.90;;;;;;6270771;28;20515;-77
2023/03/31 01:38:52;;;;;;;3.80;1.25;;;11.80;99.90;;;;;;6271027;28;20048;-78
2023/03/31 01:42:02;;;;;;;4.18;1.95;;;11.80;99.90;;;;;;6270545;28;20403;-78
2023/03/31 01:45:16;;;;;;;4.63;1.42;;;11.80;99.90;;;;;;6270426;28;20438;-78
2023/03/31 01:48:22;;;;;;;4.72;1.40;;;11.70;99.90;;;;;;6275690;28;20041;-79
2023/03/31 01:51:33;;;;;;;6.97;1.77;;;11.60;99.90;;;;;;6277106;28;20056;-79
2023/03/31 01:54:40;;;;;;;4.60;1.60;;;11.60;99.90;;;;;;6277224;28;20049;-79
2023/03/31 01:57:47;;;;;;;3.38;1.60;;;11.50;99.90;;;;;;6276629;28;20047;-79
2023/03/31 02:00:55;;;;;;;3.50;1.45;;;11.50;99.90;;;;;;6275739;28;20056;-79
2023/03/31 02:04:06;;;;;;;;;;;11.50;99.90;;;;;;6276682;28;20041;-79
2023/03/31 02:07:12;;;;;;;6.00;1.90;;;11.50;99.90;;;;;;6270695;28;19978;-79
2023/03/31 02:10:15;;;;;;;5.03;1.88;;;11.40;99.90;;;;;;6283114;28;20055;-80
2023/03/31 02:13:21;;;;;;;5.07;1.50;;;11.40;99.90;;;;;;6281988;28;20053;-80
2023/03/31 02:16:26;;;;;;;7.43;2.35;;;11.40;99.90;;;;;;6282564;28;20043;-80
2023/03/31 02:19:32;;;;;;;5.20;2.10;;;11.40;99.90;;;;;;6278588;28;20056;-79
2023/03/31 02:22:38;;;;;;;4.32;2.00;;;11.30;99.90;;;;;;6278989;28;20063;-79
2023/03/31 02:25:46;;;;;;;7.45;2.30;;;11.30;99.90;;;;;;6277239;28;20047;-79
2023/03/31 02:28:50;;;;;;;8.50;2.30;;;11.30;99.90;;;;;;6276684;28;20049;-79
2023/03/31 02:31:58;;;;;;;7.35;2.00;;;11.20;99.90;;;;;;6280310;28;20041;-79
2023/03/31 02:35:00;;;;;;;6.88;1.80;;;11.20;99.90;;;;;;6281410;28;20049;-78
2023/03/31 02:38:05;;;;;;;3.75;1.90;;;11.20;99.90;;;;;;6280354;28;20396;-78
2023/03/31 02:41:08;;;;;;;5.57;2.10;;;11.20;99.90;;;;;;6280501;28;20122;-80
2023/03/31 02:44:11;;;;;;;3.60;2.15;;;11.20;99.90;;;;;;6277351;28;20041;-78
2023/03/31 02:47:15;;;;;;;3.78;2.92;;;11.20;99.90;;;;;;6277952;28;20408;-78
2023/03/31 02:50:17;;;;;;;6.25;2.53;;;11.20;99.90;;;;;;6276894;28;20053;-78
2023/03/31 02:53:27;;;;;;;5.32;2.42;;;11.10;99.90;;;;;;6275920;28;20056;-79
2023/03/31 02:56:43;;;;;;;5.93;2.30;;;11.10;99.90;;;;;;6277422;28;20041;-79
2023/03/31 02:59:59;;;;;;;7.57;2.55;;;11.10;99.90;;;;;;6277714;28;20037;-79
2023/03/31 03:03:14;;;;;;;7.18;2.28;;;11.00;99.90;;;;;;6277800;28;20084;-78
2023/03/31 03:06:29;;;;;;;4.85;2.22;;;11.00;99.90;;;;;;6277344;28;20486;-80
2023/03/31 03:09:38;;;;;;;4.07;2.00;;;11.00;99.90;;;;;;6279534;28;20187;-79
2023/03/31 03:12:45;;;;;;;3.38;2.00;;;10.90;99.90;;;;;;6278997;28;20049;-80
2023/03/31 03:15:55;;;;;;;5.82;1.98;;;10.90;99.90;;;;;;6278704;28;20066;-79
2023/03/31 03:18:58;;;;;;;2.60;1.92;;;10.90;99.90;;;;;;6278831;28;20057;-79
2023/03/31 03:21:59;;;;;;;2.65;1.85;;;10.80;99.90;;;;;;6278508;28;20419;-80
2023/03/31 03:25:01;;;;;;;5.72;2.38;;;10.70;99.90;;;;;;6275484;28;20052;-78
2023/03/31 03:28:03;;;;;;;3.08;2.13;;;10.60;99.90;;;;;;6277054;28;20071;-79
2023/03/31 03:31:08;;;;;;;6.78;2.42;;;10.60;99.90;;;;;;6278470;28;20511;-79
2023/03/31 03:34:10;;;;;;;5.88;2.45;;;10.40;99.90;;;;;;6278136;28;20052;-79
2023/03/31 03:37:11;;;;;;;5.15;2.22;;;10.30;99.90;;;;;;6277125;28;20072;-79
2023/03/31 03:40:14;;;;;;;5.78;2.65;;;10.20;99.90;;;;;;6276545;28;20423;-79
2023/03/31 03:43:15;;;;;;;8.68;2.35;;;10.00;99.90;;;;;;6275858;28;20423;-79
2023/03/31 03:46:18;;;;;;;8.13;2.70;;;9.90;99.90;;;;;;6276616;28;20124;-79
2023/03/31 03:49:20;;;;;;;6.22;2.00;;;9.80;99.90;;;;;;6276078;28;20052;-79
2023/03/31 03:52:22;;;;;;;7.38;2.50;;;9.70;99.90;;;;;;6275314;28;20041;-79
2023/03/31 03:55:24;;;;;;;4.70;2.97;;;9.70;99.90;;;;;;6274577;28;20071;-80
2023/03/31 03:58:26;;;;;;;7.85;2.70;;;9.70;99.90;;;;;;6275614;28;20063;-79
2023/03/31 04:01:29;;;;;;;6.90;3.15;;;9.70;99.90;;;;;;6275621;28;20055;-79
2023/03/31 04:04:31;;;;;;;8.98;2.88;;;9.80;99.90;;;;;;6275633;28;20044;-79
2023/03/31 04:07:33;;;;;;;8.02;2.53;;;9.80;99.90;;;;;;6276441;28;20047;-79
2023/03/31 04:10:35;;;;;;;3.75;2.60;;;9.90;99.90;;;;;;6277595;28;20053;-79
2023/03/31 04:13:36;;;;;;;4.10;2.35;;;9.90;99.90;;;;;;6275619;28;20064;-79
2023/03/31 04:16:41;;;;;;;6.13;3.38;;;10.00;99.90;;;;;;6276308;28;20052;-80
2023/03/31 04:19:43;;;;;;;4.97;2.80;;;10.00;99.90;;;;;;6274086;28;20044;-78
2023/03/31 04:22:46;;;;;;;5.28;2.75;;;10.10;99.90;;;;;;6274148;28;20053;-80
2023/03/31 04:25:48;;;;;;;6.03;3.13;;;10.10;99.90;;;;;;6273182;28;20037;-78
2023/03/31 04:28:50;;;;;;;8.27;3.83;;;10.00;99.90;;;;;;6274100;28;20426;-78
2023/03/31 04:31:57;;;;;;;6.70;2.50;;;10.10;99.90;;;;;;6272978;28;20499;-78
2023/03/31 04:35:03;;;;;;;5.10;2.87;;;10.10;99.90;;;;;;6273223;28;20129;-79
2023/03/31 04:38:05;;;;;;;8.55;3.05;;;10.10;99.90;;;;;;6276698;28;20049;-82
2023/03/31 04:41:06;;;;;;;7.40;3.50;;;10.10;99.90;;;;;;6280785;28;20041;-82
2023/03/31 04:44:08;;;;;;;5.97;3.10;;;10.10;99.90;;;;;;6280248;28;20055;-81
2023/03/31 04:47:11;;;;;;;7.13;3.10;;;10.10;99.90;;;;;;6281022;28;20418;-81
2023/03/31 04:50:13;;;;;;;5.63;2.42;;;10.10;99.90;;;;;;6279440;28;20045;-82
2023/03/31 04:53:15;;;;;;;5.35;3.03;;;10.20;99.90;;;;;;6279991;28;20056;-82
2023/03/31 04:56:16;;;;;;;6.88;2.97;;;10.20;99.90;;;;;;6281424;28;20541;-82
2023/03/31 04:59:18;;;;;;;5.82;2.88;;;10.20;99.90;;;;;;6282397;28;20057;-82
2023/03/31 05:02:22;;;;;;;7.82;3.22;;;10.20;99.90;;;;;;6282815;28;20049;-82
2023/03/31 05:05:24;;;;;;;6.22;3.28;;;10.20;99.90;;;;;;6281764;28;20060;-83
2023/03/31 05:08:26;;;;;;;4.68;3.03;;;10.20;99.90;;;;;;6278459;28;20045;-83
2023/03/31 05:11:28;;;;;;;7.65;2.95;;;10.20;99.90;;;;;;6279392;28;20044;-82
2023/03/31 05:14:30;;;;;;;12.18;6.20;;;10.20;99.90;;;;;;6280196;28;20140;-81
2023/03/31 05:17:35;;;;;;;11.85;3.47;;;10.20;99.90;;;;;;6282706;28;20048;-81
2023/03/31 05:20:37;;;;;;;5.90;3.38;;;10.20;99.90;;;;;;6285066;28;20056;-81
2023/03/31 05:23:39;;;;;;;7.28;3.10;;;10.20;99.90;;;;;;6284319;28;20075;-81
2023/03/31 05:26:43;;;;;;;5.25;3.78;;;10.10;99.90;;;;;;6285314;28;20041;-82
2023/03/31 05:29:44;;;;;;;7.22;3.75;;;10.10;99.90;;;;;;6285128;28;20064;-81
2023/03/31 05:32:47;;;;;;;7.78;4.22;;;10.10;99.90;;;;;;6284886;28;20049;-82
2023/03/31 05:35:49;;;;;;;8.60;3.53;;;10.00;99.90;;;;;;6285477;28;20053;-81
2023/03/31 05:38:51;;;;;;;8.30;4.20;;;10.00;99.90;;;;;;6281528;28;20112;-82
2023/03/31 05:41:52;;;;;;;9.50;3.88;;;10.00;99.90;;;;;;6282457;28;20067;-81
2023/03/31 05:44:54;;;;;;;5.78;3.85;;;10.00;99.90;;;;;;6284253;28;20075;-81
2023/03/31 05:47:57;;;;;;;12.32;4.63;;;9.90;99.90;;;;;;6285615;28;20044;-81
2023/03/31 05:51:00;;;;;;;7.80;3.90;;;10.00;99.90;;;;;;6288029;28;20045;-82
2023/03/31 05:54:02;;;;;;;8.60;4.57;;;10.00;99.90;;;;;;6284177;28;20056;-82
2023/03/31 05:57:03;;;;;;;10.73;4.78;;;10.00;99.90;;;;;;6281783;28;20041;-81
2023/03/31 06:00:10;;;;;;;15.00;6.43;;;10.00;99.90;;;;;;6253266;28;20055;-81
2023/03/31 06:03:13;;;;;;;9.05;4.90;;;10.00;99.90;;;;;;6280488;28;20102;-82
2023/03/31 06:06:15;;;;;;;16.05;6.30;;;10.10;99.90;;;;;;6281275;28;20044;-81
2023/03/31 06:09:17;;;;;;;12.07;5.47;;;10.10;99.90;;;;;;6272359;28;20055;-80
2023/03/31 06:12:19;;;;;;;9.52;5.60;;;10.00;99.90;;;;;;6276905;28;20045;-80
2023/03/31 06:15:21;;;;;;;13.18;5.78;;;10.00;99.90;;;;;;6276211;28;21278;-80
2023/03/31 06:18:24;;;;;;;8.40;6.60;;;10.10;99.90;;;;;;6274327;28;20051;-80
2023/03/31 06:21:26;;;;;;;11.63;6.75;;;10.20;99.90;;;;;;6275122;28;20057;-80
2023/03/31 06:24:27;;;;;;;8.55;6.55;;;10.30;99.90;;;;;;6279450;28;20049;-80
2023/03/31 06:27:29;;;;;;;18.67;7.50;;;10.30;99.90;;;;;;6274584;28;20048;-80
2023/03/31 06:30:31;;;;;;;8.88;6.43;;;10.40;99.90;;;;;;6272501;28;20143;-80
2023/03/31 06:33:35;;;;;;;10.57;6.90;;;10.50;99.90;;;;;;6273037;28;20361;-81
2023/03/31 06:36:37;;;;;;;13.98;6.93;;;10.60;99.90;;;;;;6275266;28;20052;-80
2023/03/31 06:39:38;;;;;;;12.38;6.93;;;10.70;99.90;;;;;;6272899;28;20068;-81
2023/03/31 06:42:40;;;;;;;17.75;7.38;;;10.70;99.90;;;;;;6278967;28;20049;-81
2023/03/31 06:45:42;;;;;;;15.23;6.80;;;10.80;99.90;;;;;;6276002;28;20040;-80
2023/03/31 06:48:45;;;;;;;11.77;6.38;;;10.80;99.90;;;;;;6272919;28;20040;-79
2023/03/31 06:51:46;;;;;;;11.10;6.65;;;10.80;99.90;;;;;;6273007;28;20044;-81
2023/03/31 06:54:48;;;;;;;5.55;5.00;;;10.90;99.90;;;;;;6279675;28;20056;-81
2023/03/31 06:57:50;;;;;;;10.15;5.35;;;10.90;99.90;;;;;;6275943;28;20052;-81
2023/03/31 07:00:52;;;;;;;9.13;5.10;;;11.00;99.90;;;;;;6271055;28;20040;-80
2023/03/31 07:03:56;;;;;;;5.05;4.05;;;11.00;99.90;;;;;;6271904;28;20055;-81
2023/03/31 07:06:58;;;;;;;9.15;5.43;;;11.10;99.90;;;;;;6272015;28;20435;-81
2023/03/31 07:10:08;;;;;;;6.25;4.53;;;11.20;99.90;;;;;;6274142;28;21676;-82
2023/03/31 07:13:14;;;;;;;4.45;3.70;;;11.30;99.90;;;;;;6272464;28;20166;-81
2023/03/31 07:16:16;;;;;;;6.00;3.78;;;11.40;99.90;;;;;;6275496;28;20040;-81
2023/03/31 07:19:19;;;;;;;8.50;3.05;;;11.40;99.90;;;;;;6275150;28;20055;-81
2023/03/31 07:22:21;;;;;;;3.33;2.25;;;11.50;99.90;;;;;;6277508;28;20060;-80
2023/03/31 07:25:23;;;;;;;4.43;2.47;;;11.70;99.90;;;;;;6276353;28;20055;-80
2023/03/31 07:28:24;;;;;;;4.32;2.42;;;12.10;99.90;;;;;;6275984;28;20060;-80
2023/03/31 07:31:26;;;;;;;4.43;1.65;;;12.40;99.90;;;;;;6276039;28;20064;-80
2023/03/31 07:34:29;;;;;;;1.48;1.38;;;12.60;99.90;;;;;;6275119;28;20045;-80
2023/03/31 07:37:35;;;;;;;4.53;1.60;;;12.70;99.90;;;;;;6275262;28;20045;-80
2023/03/31 07:40:37;;;;;;;4.82;1.65;;;12.60;99.90;;;;;;6274144;28;20044;-80
2023/03/31 07:43:39;;;;;;;3.40;1.23;;;12.50;99.90;;;;;;6272863;28;20052;-80
2023/03/31 07:46:40;;;;;;;2.55;1.05;;;12.50;99.90;;;;;;6274901;28;20521;-80
2023/03/31 07:49:43;;;;;;;4.90;1.42;;;12.40;99.90;;;;;;6271913;28;20143;-80
2023/03/31 07:52:46;;;;;;;3.30;1.23;;;12.30;99.90;;;;;;6275739;28;20152;-80
2023/03/31 07:55:48;;;;;;;2.85;1.65;;;12.30;99.90;;;;;;6273295;28;20088;-80
2023/03/31 07:58:51;;;;;;;2.38;1.23;;;12.20;99.90;;;;;;6274579;28;20045;-80
2023/03/31 08:01:53;;;;;;;7.18;1.30;;;12.20;99.90;;;;;;6272977;28;20129;-80
2023/03/31 08:04:56;;;;;;;2.95;2.70;;;12.20;99.90;;;;;;6276144;28;20057;-80
2023/03/31 08:07:58;;;;;;;1.80;0.98;;;12.40;99.90;;;;;;6272341;28;20531;-80
2023/03/31 08:10:59;;;;;;;2.30;1.35;;;12.80;99.90;;;;;;6274472;28;20052;-81
2023/03/31 08:14:01;;;;;;;1.23;0.95;;;13.10;99.90;;;;;;6279022;28;20047;-81
2023/03/31 08:17:03;;;;;;;2.22;1.48;;;13.40;99.90;;;;;;6276713;28;20059;-80
2023/03/31 08:20:09;;;;;;;5.40;1.50;;;13.30;99.90;;;;;;6272212;28;20049;-79
2023/03/31 08:23:10;;;;;;;2.55;1.08;;;12.70;99.90;;;;;;6277166;28;20055;-80
2023/03/31 08:26:16;;;;;;;5.00;1.25;;;12.40;99.90;;;;;;6273722;28;20037;-80
2023/03/31 08:29:18;;;;;;;2.05;1.00;;;12.20;99.90;;;;;;6289817;28;20036;-80
2023/03/31 08:32:22;;;;;;;2.90;1.25;;;12.30;99.90;;;;;;6281854;28;20048;-80
2023/03/31 08:35:25;;;;;;;2.15;1.05;;;12.40;99.90;;;;;;6283097;28;20056;-80
2023/03/31 08:38:27;;;;;;;1.75;1.05;;;12.80;99.90;;;;;;6284227;28;20049;-83
2023/03/31 08:41:47;;;;;;;3.65;1.58;;;13.30;99.90;;;;;;6287226;28;20048;-83
2023/03/31 08:44:55;;;;;;;3.50;0.80;;;13.70;99.90;;;;;;6286800;28;20044;-83
2023/03/31 08:48:02;;;;;;;1.92;1.35;;;14.10;99.90;;;;;;6286637;28;20083;-83
2023/03/31 08:51:12;;;;;;;3.08;1.08;;;14.60;99.90;;;;;;6282910;28;20452;-84
2023/03/31 08:54:18;;;;;;;3.25;1.00;;;14.70;99.90;;;;;;6278522;28;20056;-83
2023/03/31 08:57:25;;;;;;;2.33;1.17;;;14.50;99.90;;;;;;6276444;28;20037;-82
2023/03/31 09:00:32;;;;;;;2.55;0.90;;;14.20;99.90;;;;;;6267049;28;20044;-84
2023/03/31 09:03:40;;;;;;;3.67;1.20;;;14.00;99.90;;;;;;6277051;28;20068;-83
2023/03/31 09:06:50;;;;;;;1.50;1.10;;;14.00;99.90;;;;;;6277643;28;20051;-84
2023/03/31 09:09:59;;;;;;;3.83;2.47;;;14.00;99.90;;;;;;6278488;28;20052;-84
2023/03/31 09:13:11;;;;;;;4.00;1.23;;;14.30;99.90;;;;;;6276487;28;20060;-83
2023/03/31 09:16:15;;;;;;;5.03;1.58;;;14.70;99.90;;;;;;6276748;28;20049;-83
2023/03/31 09:19:20;;;;;;;2.72;1.20;;;15.00;99.90;;;;;;6276902;28;20050;-84
2023/03/31 09:22:27;;;;;;;1.65;0.98;;;15.30;99.90;;;;;;6275358;28;20049;-84
2023/03/31 09:25:34;;;;;;;1.37;1.07;;;15.50;99.90;;;;;;6275189;28;20123;-83
2023/03/31 09:28:38;;;;;;;4.07;1.75;;;15.70;99.90;;;;;;6276955;28;20067;-84
2023/03/31 09:31:43;;;;;;;2.38;1.10;;;15.80;99.90;;;;;;6276003;28;20052;-84
2023/03/31 09:34:46;;;;;;;3.47;1.30;;;15.70;99.90;;;;;;6272637;28;20049;-83
2023/03/31 09:37:50;;;;;;;5.60;1.45;;;15.50;99.90;;;;;;6275938;28;20037;-85
2023/03/31 09:40:52;;;;;;;5.05;1.40;;;15.20;99.90;;;;;;6279051;28;20045;-87
2023/03/31 09:43:54;;;;;;;3.75;1.45;;;15.20;99.90;;;;;;6282948;28;20037;-85
2023/03/31 09:46:56;;;;;;;6.78;1.67;;;15.60;99.90;;;;;;6278255;28;20067;-85
2023/03/31 09:49:58;;;;;;;6.45;1.80;;;15.80;99.90;;;;;;6280115;28;20049;-85
2023/03/31 09:53:04;;;;;;;2.35;1.30;;;16.10;99.90;;;;;;6278528;28;20059;-87
2023/03/31 09:56:10;;;;;;;5.13;1.35;;;16.30;99.90;;;;;;6278083;28;20044;-85
2023/03/31 09:59:16;;;;;;;3.47;1.10;;;16.30;99.90;;;;;;6277704;28;20044;-85
2023/03/31 10:02:33;;;;;;;5.68;1.70;;;16.10;99.90;;;;;;6280173;28;20044;-85
2023/03/31 10:05:38;;;;;;;4.55;1.90;;;16.10;99.90;;;;;;6277636;28;20469;-85
2023/03/31 10:08:42;;;;;;;4.78;1.92;;;16.50;99.90;;;;;;6275414;28;20128;-84
2023/03/31 10:11:56;;;;;;;2.47;1.27;;;16.90;99.90;;;;;;6273397;28;20056;-85
2023/03/31 10:15:18;;;;;;;2.38;1.40;;;16.70;99.90;;;;;;6274449;28;20044;-85
2023/03/31 10:18:35;;;;;;;4.25;2.20;;;16.80;99.90;;;;;;6278093;28;20502;-84
2023/03/31 10:21:38;;;;;;;4.10;1.30;;;16.80;99.90;;;;;;6256909;28;20282;-84
2023/03/31 10:24:42;;;;;;;6.60;3.45;;;16.90;99.90;;;;;;6274975;28;20036;-82
2023/03/31 10:27:46;;;;;;;12.00;2.80;;;16.80;99.90;;;;;;6280132;28;20053;-83
2023/03/31 10:30:50;;;;;;;4.40;1.35;;;16.70;99.90;;;;;;6281148;28;20051;-84
2023/03/31 10:33:53;;;;;;;6.32;1.52;;;16.70;99.90;;;;;;6278936;28;20045;-83
2023/03/31 10:36:55;;;;;;;4.72;1.50;;;16.80;99.90;;;;;;6281341;28;20101;-85
2023/03/31 10:40:00;;;;;;;3.33;1.65;;;16.80;99.90;;;;;;6278398;28;20040;-86
2023/03/31 10:43:05;;;;;;;5.72;1.40;;;16.90;99.90;;;;;;6280189;28;20055;-85
2023/03/31 10:46:07;;;;;;;5.78;1.27;;;16.70;99.90;;;;;;6280799;28;20045;-83
2023/03/31 10:49:16;;;;;;;1.77;1.02;;;15.50;99.90;;;;;;6279985;28;20513;-84
2023/03/31 10:52:20;;;;;;;1.92;0.82;;;14.20;99.90;;;;;;6280878;28;20124;-84
2023/03/31 10:55:31;;;;;;;3.67;0.95;;;13.40;99.90;;;;;;6279497;28;20048;-84
2023/03/31 10:58:44;;;;;;;4.38;1.10;;;13.00;99.90;;;;;;6277417;28;20056;-85
2023/03/31 11:02:04;;;;;;;2.45;0.95;;;12.80;99.90;;;;;;6282270;28;20052;-82
2023/03/31 11:05:21;;;;;;;1.45;0.80;;;12.50;99.90;;;;;;6287601;28;20053;-85
2023/03/31 11:08:37;;;;;;;1.00;0.88;;;12.30;99.90;;;;;;6282666;28;20049;-85
2023/03/31 11:11:59;;;;;;;0.68;0.40;;;12.20;99.90;;;;;;6281879;28;20045;-86
2023/03/31 11:15:13;;;;;;;0.70;0.70;;;11.90;99.90;;;;;;6277738;28;20574;-80
2023/03/31 11:18:39;;;;;;;1.42;0.50;;;11.80;99.90;;;;;;6281621;28;20041;-82
2023/03/31 11:21:55;;;;;;;0.90;0.60;;;11.70;99.90;;;;;;6288997;28;20063;-81
2023/03/31 11:25:13;;;;;;;1.35;0.60;;;11.80;99.90;;;;;;6289322;28;20049;-80
2023/03/31 11:28:32;;;;;;;;;;;12.00;99.90;;;;;;6284853;28;20063;-83
2023/03/31 11:31:41;;;;;;;8.18;6.38;;;12.10;99.90;;;;;;6289107;28;19925;-82
2023/03/31 11:34:57;;;;;;;4.32;0.90;;;12.30;99.90;;;;;;6281058;28;20041;-84
2023/03/31 11:38:17;;;;;;;1.45;0.65;;;12.70;99.90;;;;;;6279713;28;20040;-82
2023/03/31 11:41:21;;;;;;;1.65;0.73;;;13.40;99.90;;;;;;6276083;28;20053;-83
2023/03/31 11:44:27;;;;;;;1.25;0.57;;;13.80;99.90;;;;;;6290450;28;20076;-82
2023/03/31 11:47:33;;;;;;;1.23;0.60;;;14.20;99.90;;;;;;6292569;28;20049;-82
2023/03/31 11:50:39;;;;;;;1.77;0.63;;;14.70;99.90;;;;;;6292720;28;20045;-84
2023/03/31 11:53:42;;;;;;;1.60;0.65;;;15.10;99.90;;;;;;6282744;28;20445;-84
2023/03/31 11:56:44;;;;;;;1.08;0.40;;;15.10;99.90;;;;;;6278441;28;20044;-83
2023/03/31 11:59:52;;;;;;;2.97;1.55;;;15.10;99.90;;;;;;6282943;28;20051;-84
2023/03/31 12:02:59;;;;;;;2.22;0.77;;;15.00;99.90;;;;;;6276128;28;20045;-85
2023/03/31 12:06:08;;;;;;;0.65;0.60;;;14.80;99.90;;;;;;6279284;28;20068;-87
2023/03/31 12:09:17;;;;;;;2.42;1.05;;;14.70;99.90;;;;;;6282058;28;20045;-84
2023/03/31 12:12:22;;;;;;;2.55;1.38;;;14.60;99.90;;;;;;6279156;28;20041;-87
2023/03/31 12:15:30;;;;;;;1.02;0.57;;;14.50;99.90;;;;;;6277848;28;20053;-84
2023/03/31 12:18:36;;;;;;;0.88;0.63;;;14.60;99.90;;;;;;6294084;28;20055;-85
2023/03/31 12:21:43;;;;;;;1.45;0.90;;;14.70;99.90;;;;;;6292382;28;20128;-84
2023/03/31 12:24:45;;;;;;;2.35;1.45;;;14.60;99.90;;;;;;6277517;28;20129;-80
2023/03/31 12:27:57;;;;;;;0.95;0.60;;;14.60;99.90;;;;;;6279317;28;20063;-81
2023/03/31 12:31:03;;;;;;;0.85;0.57;;;14.60;99.90;;;;;;6272987;28;20059;-81
2023/03/31 12:34:08;;;;;;;6.28;3.72;;;14.60;99.90;;;;;;6276029;28;20056;-81
2023/03/31 12:37:41;;;;;;;1.98;1.50;;;14.60;99.90;;;;;;6274762;28;20056;-80
2023/03/31 12:40:56;;;;;;;2.45;1.02;;;14.60;99.90;;;;;;6276220;28;20406;-81
2023/03/31 12:44:16;;;;;;;2.28;0.65;;;14.30;99.90;;;;;;6274317;28;20063;-81
2023/03/31 12:47:35;;;;;;;1.67;0.70;;;14.30;99.90;;;;;;6283522;28;20048;-80
2023/03/31 12:50:52;;;;;;;0.68;0.63;;;14.50;99.90;;;;;;6286763;28;20041;-80
2023/03/31 12:54:13;;;;;;;1.05;0.60;;;14.50;99.90;;;;;;6275979;28;20455;-82
2023/03/31 12:57:20;;;;;;;2.28;0.90;;;14.60;99.90;;;;;;6276583;28;20486;-83
2023/03/31 13:00:25;;;;;;;3.58;0.85;;;14.40;99.90;;;;;;6279138;28;20049;-82
2023/03/31 13:03:42;;;;;;;2.17;0.90;;;14.40;99.90;;;;;;6274331;28;20059;-81
2023/03/31 13:06:58;;;;;;;2.70;1.40;;;14.70;99.90;;;;;;6278084;28;20063;-81
2023/03/31 13:10:24;;;;;;;2.60;0.82;;;15.20;99.90;;;;;;6271756;28;20048;-81
2023/03/31 13:13:26;;;;;;;1.00;0.75;;;15.50;99.90;;;;;;6274185;28;20616;-81
2023/03/31 13:16:29;;;;;;;2.92;1.65;;;15.80;99.90;;;;;;6271788;28;20041;-81
2023/03/31 13:19:34;;;;;;;1.90;0.88;;;16.00;99.90;;;;;;6274816;28;20072;-84
2023/03/31 13:22:40;;;;;;;2.72;1.05;;;16.10;99.90;;;;;;6282020;28;20074;-84
2023/03/31 13:25:47;;;;;;;2.65;0.77;;;16.00;99.90;;;;;;6281990;28;20041;-84
2023/03/31 13:29:10;;;;;;;2.30;0.80;;;16.00;99.90;;;;;;6277289;28;20044;-81
2023/03/31 13:32:21;;;;;;;3.92;1.10;;;15.80;99.90;;;;;;6275388;28;20056;-81
2023/03/31 13:35:30;;;;;;;2.17;0.73;;;15.90;99.90;;;;;;6272134;28;20541;-81
2023/03/31 13:38:44;;;;;;;2.58;1.10;;;15.90;99.90;;;;;;6275682;28;20052;-82
2023/03/31 13:41:56;;;;;;;3.22;0.90;;;15.70;99.90;;;;;;6277312;28;20049;-81
2023/03/31 13:45:10;;;;;;;2.30;0.73;;;15.50;99.90;;;;;;6275751;28;20561;-81
2023/03/31 13:48:28;;;;;;;2.95;0.63;;;15.30;99.90;;;;;;6285655;28;20108;-81
2023/03/31 13:51:41;;;;;;;1.20;0.70;;;15.20;99.90;;;;;;6288401;28;20059;-82
2023/03/31 13:55:14;;;;;;;1.42;0.95;;;15.10;99.90;;;;;;6278954;28;20064;-83
2023/03/31 13:58:32;;;;;;;3.17;0.63;;;15.10;99.90;;;;;;6279946;28;20041;-84
2023/03/31 14:02:03;;;;;;;0.95;0.60;;;15.10;99.90;;;;;;6279167;28;20059;-85
2023/03/31 14:05:25;;;;;;;1.63;1.08;;;15.20;99.90;;;;;;6285733;28;20052;-84
2023/03/31 14:08:39;;;;;;;0.60;0.55;;;15.30;99.90;;;;;;6277378;28;20048;-85
2023/03/31 14:11:41;;;;;;;0.55;0.50;;;15.20;99.90;;;;;;6270202;28;20055;-86
2023/03/31 14:14:42;;;;;;;1.52;0.68;;;15.20;99.90;;;;;;6271606;28;20049;-83
2023/03/31 14:17:45;;;;;;;2.72;1.02;;;15.00;99.90;;;;;;6262823;28;21517;-87
2023/03/31 14:21:05;;;;;;;1.50;0.80;;;14.80;99.90;;;;;;6273024;28;20056;-88
2023/03/31 14:24:18;;;;;;;2.83;1.10;;;14.10;99.90;;;;;;6267884;28;20100;-83
2023/03/31 14:27:39;;;;;;;1.80;0.73;;;13.60;99.90;;;;;;6281520;28;20098;-86
2023/03/31 14:30:48;;;;;;;0.65;0.60;;;13.10;99.90;;;;;;6278461;28;20057;-85
2023/03/31 14:34:23;;;;;;;2.10;0.57;;;12.50;99.90;;;;;;6276932;28;20041;-86
2023/03/31 14:41:00;;;;;;;1.98;0.60;;;12.20;99.90;;;;;;6280735;28;20043;-86
2023/03/31 14:44:18;;;;;;;2.67;1.23;;;12.40;99.90;;;;;;6277092;28;20061;-87
2023/03/31 14:50:46;;;;;;;2.20;0.75;;;13.20;99.90;;;;;;6282909;28;20107;-86
2023/03/31 14:53:47;;;;;;;1.73;0.50;;;13.40;99.90;;;;;;6284305;28;20045;-84
2023/03/31 14:56:53;;;;;;;4.03;0.85;;;13.40;99.90;;;;;;6282596;28;20085;-84
2023/03/31 14:59:56;;;;;;;3.65;0.95;;;13.40;99.90;;;;;;6285659;28;20048;-85
2023/03/31 15:02:59;;;;;;;1.70;0.55;;;13.40;99.90;;;;;;6285592;28;20044;-85
2023/03/31 15:06:03;;;;;;;1.02;0.50;;;13.30;99.90;;;;;;6285111;28;20044;-85
2023/03/31 15:09:19;;;;;;;3.45;1.20;;;13.20;99.90;;;;;;6292012;28;20044;-85
2023/03/31 15:12:22;;;;;;;5.30;1.33;;;12.80;99.90;;;;;;6289934;28;20040;-85
2023/03/31 15:15:26;;;;;;;2.05;1.20;;;12.40;99.90;;;;;;6284869;28;20045;-85
2023/03/31 15:18:28;;;;;;;5.05;1.00;;;12.10;99.90;;;;;;6282106;28;20061;-83
2023/03/31 15:21:32;;;;;;;1.38;1.10;;;11.90;99.90;;;;;;6281991;28;20037;-84
2023/03/31 15:24:33;;;;;;;3.25;1.08;;;11.90;99.90;;;;;;6279274;28;20049;-84
2023/03/31 15:27:40;;;;;;;1.45;1.05;;;12.00;99.90;;;;;;6281474;28;20060;-84
2023/03/31 15:30:43;;;;;;;2.35;0.80;;;12.20;99.90;;;;;;6285392;28;20044;-86
2023/03/31 15:33:47;;;;;;;2.40;0.70;;;12.20;99.90;;;;;;6283233;28;20048;-85
2023/03/31 15:36:48;;;;;;;3.50;0.70;;;12.30;99.90;;;;;;6282116;28;20041;-85
2023/03/31 15:39:50;;;;;;;2.35;0.57;;;12.40;99.90;;;;;;6284570;28;20504;-85
2023/03/31 15:42:56;;;;;;;0.77;0.57;;;12.50;99.90;;;;;;6285879;28;20048;-84
2023/03/31 15:45:59;;;;;;;2.90;0.60;;;12.60;99.90;;;;;;6282096;28;20051;-85
2023/03/31 15:49:02;;;;;;;0.98;0.73;;;12.60;99.90;;;;;;6285113;28;20487;-85
2023/03/31 15:52:03;;;;;;;2.00;0.70;;;12.60;99.90;;;;;;6281496;28;20049;-84
2023/03/31 15:55:25;;;;;;;2.53;1.02;;;12.50;99.90;;;;;;6284348;28;20056;-85
2023/03/31 15:58:56;;;;;;;0.77;0.55;;;12.50;99.90;;;;;;6285806;28;20055;-85
2023/03/31 16:02:02;;;;;;;2.90;1.00;;;12.40;99.90;;;;;;6281999;28;20413;-83
2023/03/31 16:05:04;;;;;;;1.20;0.80;;;12.30;99.90;;;;;;6273668;28;20047;-84
2023/03/31 16:08:12;;;;;;;1.98;1.00;;;12.30;99.90;;;;;;6280058;28;20413;-84
2023/03/31 16:11:18;;;;;;;1.08;0.80;;;12.30;99.90;;;;;;6280290;28;20044;-82
2023/03/31 16:14:25;;;;;;;0.73;0.70;;;12.20;99.90;;;;;;6281742;28;20064;-81
2023/03/31 16:17:31;;;;;;;0.70;0.60;;;12.20;99.90;;;;;;6278875;28;20045;-81
2023/03/31 16:20:36;;;;;;;0.65;0.50;;;12.20;99.90;;;;;;6276613;28;20147;-84